Time;durP1;ratioP1;P1;durP2;ratioP2;P2;SDS_P1;SDS_P2;PMS_P1;PMS_P2;Temp;Humidity;BMP_temperature;BMP_pressure;BME280_temperature;BME280_humidity;BME280_pressure;Samples;Min_cycle;Max_cycle;Signal;HPM_P1;HPM_P2
2022/01/12 00:04:02;;;;;;;9.15;6.72;;;;;;;14.29;48.03;103100.84;20995002;28;20051;-69
2022/01/12 00:14:04;;;;;;;8.15;5.90;;;;;;;14.34;48.06;103112.25;20994670;28;20043;-69
2022/01/12 00:24:07;;;;;;;8.95;6.28;;;;;;;13.65;48.16;102986.31;20977098;28;20052;-69
2022/01/12 00:34:10;;;;;;;9.85;6.93;;;;;;;14.44;48.14;103125.28;20993127;28;20512;-69
2022/01/12 00:44:22;;;;;;;8.07;5.82;;;;;;;13.54;48.13;102939.41;20974270;28;20048;-69
2022/01/12 00:54:25;;;;;;;8.82;6.90;;;;;;;14.40;48.39;103095.06;20993244;28;20046;-69
2022/01/12 01:04:27;;;;;;;9.45;6.18;;;;;;;14.45;48.56;103119.00;20991531;28;20053;-69
2022/01/12 01:35:10;;;;;;;8.00;6.47;;;;;;;13.71;48.29;102973.56;20990236;28;20467;-69
2022/01/12 01:55:34;;;;;;;9.30;6.80;;;;;;;14.36;48.67;103158.63;20973772;28;20120;-70
2022/01/12 02:05:41;;;;;;;9.27;6.30;;;;;;;13.11;48.65;102973.91;20986446;28;20044;-69
2022/01/12 02:15:45;;;;;;;7.15;5.82;;;;;;;13.69;48.58;103068.22;20987064;28;20059;-69
2022/01/12 02:36:19;;;;;;;7.90;5.95;;;;;;;13.77;48.54;103117.00;20985027;28;20486;-69
2022/01/12 02:56:41;;;;;;;10.57;7.40;;;;;;;13.62;48.79;103113.06;21001971;28;20053;-69
2022/01/12 03:06:45;;;;;;;8.68;6.80;;;;;;;13.66;48.84;103098.66;21000850;28;20045;-69
2022/01/12 03:16:47;;;;;;;10.40;7.90;;;;;;;14.44;48.53;103216.41;20999099;28;20053;-69
2022/01/12 03:27:00;;;;;;;10.13;7.45;;;;;;;13.75;48.78;103098.34;20951753;28;20040;-69
2022/01/12 03:47:05;;;;;;;13.48;9.63;;;;;;;14.38;49.08;103243.44;20997190;28;20044;-69
2022/01/12 03:57:07;;;;;;;13.40;8.68;;;;;;;14.39;48.76;103247.88;20962412;28;20040;-69
2022/01/12 04:17:30;;;;;;;12.50;9.07;;;;;;;13.68;49.26;103139.63;20994199;28;20053;-69
2022/01/12 04:27:32;;;;;;;12.25;8.63;;;;;;;14.43;49.34;103281.66;20944008;28;20049;-69
2022/01/12 04:37:34;;;;;;;10.55;7.68;;;;;;;14.43;49.11;103244.16;20974962;28;20054;-69
2022/01/12 04:47:58;;;;;;;13.52;8.77;;;;;;;13.75;49.13;103119.75;20974510;28;20040;-69
2022/01/12 04:58:00;;;;;;;14.00;10.10;;;;;;;14.53;48.99;103266.13;20993155;28;20051;-69
2022/01/12 05:08:24;;;;;;;14.23;9.45;;;;;;;14.71;48.94;103251.22;20957201;28;20045;-69
2022/01/12 05:18:30;;;;;;;10.30;8.20;;;;;;;14.13;49.07;103119.28;20959520;28;20051;-68
2022/01/12 05:28:34;;;;;;;9.07;7.32;;;;;;;14.91;48.96;103240.59;20990724;28;20098;-67
2022/01/12 05:38:36;;;;;;;9.18;7.55;;;;;;;14.92;48.74;103250.38;20957627;28;20490;-68
2022/01/12 05:59:02;;;;;;;6.75;5.80;;;;;;;15.46;48.84;103303.75;20959084;28;20127;-67
2022/01/12 06:09:04;;;;;;;6.43;5.68;;;;;;;14.91;48.83;103175.34;20971251;28;20068;-69
2022/01/12 06:19:06;;;;;;;6.72;5.57;;;;;;;15.68;49.10;103305.56;20983752;28;20044;-67
2022/01/12 06:39:23;;;;;;;7.35;5.65;;;;;;;15.96;49.38;103342.09;21004082;28;20110;-68
2022/01/12 06:49:25;;;;;;;8.45;5.97;;;;;;;15.94;48.98;103360.09;20984594;28;20505;-69
2022/01/12 06:59:27;;;;;;;7.13;5.72;;;;;;;15.91;49.53;103341.41;20982693;28;20054;-69
2022/01/12 07:09:31;;;;;;;8.63;6.32;;;;;;;15.33;49.65;103255.06;20983223;28;20226;-68
2022/01/12 07:19:38;;;;;;;9.90;7.65;;;;;;;15.16;49.52;103277.19;20981212;28;20056;-69
2022/01/12 07:29:40;;;;;;;10.23;7.43;;;;;;;15.47;49.75;103296.56;20981964;28;20044;-69
2022/01/12 07:39:42;;;;;;;8.45;6.53;;;;;;;15.43;49.43;103309.22;20997710;28;20068;-70
2022/01/12 07:49:45;;;;;;;8.57;6.38;;;;;;;16.07;49.04;103433.88;20997593;28;20127;-69
2022/01/12 07:59:47;;;;;;;7.20;6.22;;;;;;;15.95;49.27;103412.88;20996638;28;20052;-69
2022/01/12 08:09:49;;;;;;;8.60;5.65;;;;;;;15.65;49.29;103354.03;20977037;28;20044;-70
2022/01/12 08:19:54;;;;;;;5.97;5.20;;;;;;;16.07;49.15;103415.06;20995195;28;20494;-69
2022/01/12 08:30:01;;;;;;;6.33;5.07;;;;;;;16.15;48.91;103430.88;20994545;28;20055;-70
2022/01/12 08:40:03;;;;;;;5.07;4.50;;;;;;;15.92;48.38;103404.94;20975935;28;20130;-70
2022/01/12 08:50:07;;;;;;;6.80;4.20;;;;;;;16.18;48.49;103464.78;20993495;28;20052;-70
2022/01/12 09:00:10;;;;;;;6.95;4.75;;;;;;;15.56;48.55;103381.25;20959054;28;20048;-70
2022/01/12 09:10:12;;;;;;;4.90;3.50;;;;;;;15.43;48.15;103364.75;20992703;28;20044;-70
2022/01/12 09:20:14;;;;;;;4.38;3.58;;;;;;;16.18;48.13;103486.31;20973207;28;20052;-70
2022/01/12 09:30:18;;;;;;;4.53;3.58;;;;;;;16.22;48.79;103514.81;20992519;28;20047;-70
2022/01/12 09:40:21;;;;;;;6.27;3.70;;;;;;;16.23;48.55;103570.31;20991666;28;20055;-70
2022/01/12 09:50:23;;;;;;;6.00;3.42;;;;;;;15.57;48.51;103416.09;20998774;28;20118;-70
2022/01/12 10:00:26;;;;;;;5.60;3.40;;;;;;;16.26;48.52;103554.06;20988591;28;20048;-70
2022/01/12 10:10:28;;;;;;;4.75;2.92;;;;;;;16.29;48.53;103553.94;21004188;28;20105;-70
2022/01/12 10:20:30;;;;;;;4.15;2.58;;;;;;;16.23;48.24;103540.75;21003641;28;20041;-68
2022/01/12 10:30:32;;;;;;;4.65;2.75;;;;;;;14.89;48.56;103333.66;21003813;28;20075;-69
2022/01/12 10:40:52;;;;;;;7.05;3.33;;;;;;;16.06;49.14;103550.34;21002859;28;20135;-69
2022/01/12 10:50:59;;;;;;;5.00;2.67;;;;;;;16.20;49.52;103541.75;21001418;28;20044;-69
2022/01/12 11:01:01;;;;;;;4.93;2.47;;;;;;;16.22;49.50;103530.94;20967493;28;20051;-69
2022/01/12 11:11:04;;;;;;;4.72;2.40;;;;;;;15.39;49.81;103389.97;20999732;28;20044;-69
2022/01/12 11:21:10;;;;;;;4.60;1.98;;;;;;;16.02;50.37;103494.97;20981416;28;20094;-70
2022/01/12 11:31:18;;;;;;;5.25;2.10;;;;;;;16.36;49.94;103541.13;20980299;28;20098;-69
2022/01/12 11:41:26;;;;;;;6.20;2.25;;;;;;;15.76;50.19;103421.63;20997012;28;20106;-67
2022/01/12 11:51:38;;;;;;;6.43;2.10;;;;;;;16.41;50.23;103508.69;20996175;28;20048;-69
2022/01/12 12:01:46;;;;;;;6.50;2.60;;;;;;;15.68;50.21;103375.41;20980187;28;20040;-69
2022/01/12 12:11:51;;;;;;;6.07;2.42;;;;;;;16.36;50.49;103490.94;20994045;28;20056;-70
2022/01/12 12:21:53;;;;;;;7.57;2.88;;;;;;;15.86;50.43;103422.13;20976737;28;20428;-70
2022/01/12 12:31:58;;;;;;;7.28;2.70;;;;;;;16.43;50.70;103552.53;20994618;28;20490;-70
2022/01/12 12:42:02;;;;;;;6.07;2.72;;;;;;;16.12;50.55;103475.81;20993872;28;20052;-70
2022/01/12 12:52:04;;;;;;;5.57;2.40;;;;;;;15.81;50.46;103416.94;20992258;28;20048;-70
2022/01/12 13:02:10;;;;;;;4.40;1.63;;;;;;;16.34;50.42;103513.44;20991950;28;20161;-70
2022/01/12 13:12:13;;;;;;;4.95;2.03;;;;;;;16.46;50.64;103544.34;20991644;28;20045;-71
2022/01/12 13:22:37;;;;;;;5.13;2.35;;;;;;;15.88;50.45;103439.09;20978265;28;20101;-71
2022/01/12 13:32:38;;;;;;;5.57;2.85;;;;;;;16.42;50.41;103529.28;21009120;28;20118;-71
2022/01/12 13:42:53;;;;;;;4.68;2.33;;;;;;;16.49;50.56;103533.47;21006438;28;20387;-71
2022/01/12 13:52:55;;;;;;;5.17;2.07;;;;;;;16.31;50.36;103492.91;21005875;28;20045;-71
2022/01/12 14:02:58;;;;;;;4.43;2.50;;;;;;;16.17;50.15;103450.50;20987374;28;20052;-70
2022/01/12 14:12:59;;;;;;;6.78;2.10;;;;;;;16.44;50.34;103501.38;21004418;28;20506;-70
2022/01/12 14:23:05;;;;;;;3.97;2.63;;;;;;;16.51;50.51;103493.94;20986116;28;20052;-70
2022/01/12 14:33:07;;;;;;;;;;;;;;;16.54;50.24;103501.88;21004217;28;20045;-70
2022/01/12 14:43:09;;;;;;;4.28;2.63;;;;;;;16.30;50.23;103469.66;21003363;28;19974;-70
2022/01/12 14:53:11;;;;;;;4.45;2.20;;;;;;;16.46;50.01;103512.94;20984711;28;20052;-70
2022/01/12 15:03:22;;;;;;;4.63;2.35;;;;;;;16.51;50.12;103531.56;21000458;28;20052;-70
2022/01/12 15:13:39;;;;;;;4.55;2.83;;;;;;;16.49;50.01;103531.63;20983392;28;20363;-70
2022/01/12 15:23:41;;;;;;;3.38;2.10;;;;;;;16.49;50.15;103534.31;20968012;28;20053;-70
2022/01/12 15:33:43;;;;;;;3.78;2.13;;;;;;;15.85;50.05;103412.31;20998006;28;20094;-70
2022/01/12 15:43:45;;;;;;;5.18;2.47;;;;;;;16.54;49.94;103547.59;20997439;28;20056;-70
2022/01/12 15:53:47;;;;;;;4.63;2.50;;;;;;;15.76;50.29;103416.25;20996287;28;20109;-69
2022/01/12 16:03:49;;;;;;;5.10;2.35;;;;;;;15.81;50.06;103405.34;20977902;28;20040;-69
2022/01/12 16:13:52;;;;;;;4.82;2.28;;;;;;;16.52;50.21;103517.19;20994929;28;20048;-69
2022/01/12 16:24:05;;;;;;;4.32;2.50;;;;;;;16.57;50.04;103523.25;20994363;28;20091;-69
2022/01/12 16:34:09;;;;;;;3.10;2.10;;;;;;;16.41;50.18;103489.88;20976786;28;20044;-69
2022/01/12 16:44:11;;;;;;;5.97;3.17;;;;;;;15.80;50.08;103391.00;20976903;28;20060;-69
2022/01/12 16:54:13;;;;;;;5.43;3.28;;;;;;;16.37;50.04;103487.31;20974508;28;20047;-69
2022/01/12 17:04:15;;;;;;;4.82;2.80;;;;;;;16.48;50.04;103518.25;20991759;28;20127;-69
2022/01/12 17:14:22;;;;;;;5.18;2.90;;;;;;;15.89;49.99;103427.41;20975688;28;20074;-70
2022/01/12 17:25:00;;;;;;;6.10;3.45;;;;;;;15.97;49.93;103455.78;20992381;28;20052;-69
2022/01/12 17:35:02;;;;;;;5.40;3.42;;;;;;;15.22;49.79;103335.09;20990298;28;20090;-69
2022/01/12 17:45:11;;;;;;;4.53;2.67;;;;;;;16.26;49.63;103529.88;20992312;28;20393;-69
2022/01/12 17:55:22;;;;;;;5.50;3.63;;;;;;;16.37;49.76;103524.97;20973275;28;20074;-69
2022/01/12 18:05:25;;;;;;;7.22;3.70;;;;;;;16.63;49.81;103600.13;20973144;28;20041;-69
2022/01/12 18:15:37;;;;;;;5.55;3.63;;;;;;;16.55;49.77;103597.75;20986435;28;20102;-69
2022/01/12 18:25:39;;;;;;;6.10;3.50;;;;;;;16.01;49.65;103522.78;21003632;28;20048;-69
2022/01/12 18:35:40;;;;;;;7.25;4.82;;;;;;;16.57;49.81;103605.72;20986375;28;20048;-69
2022/01/12 18:45:43;;;;;;;8.75;4.75;;;;;;;16.57;49.70;103600.34;21004054;28;20045;-70
2022/01/12 18:55:45;;;;;;;6.60;5.18;;;;;;;15.90;49.53;103476.63;21001068;28;20048;-69
2022/01/12 19:05:47;;;;;;;5.85;3.88;;;;;;;16.63;49.63;103576.78;21001592;28;20052;-69
2022/01/12 19:15:48;;;;;;;8.57;5.40;;;;;;;16.10;49.66;103500.03;21000884;28;20379;-69
2022/01/12 19:25:56;;;;;;;7.00;5.30;;;;;;;15.85;49.73;103468.75;20981879;28;20052;-69
2022/01/12 19:35:58;;;;;;;8.35;5.97;;;;;;;16.30;49.60;103571.81;20998010;28;20506;-69
2022/01/12 19:46:00;;;;;;;7.10;4.50;;;;;;;16.33;49.78;103603.94;20980286;28;20061;-69
2022/01/12 19:56:09;;;;;;;9.50;5.53;;;;;;;15.51;49.76;103481.66;20997595;28;20048;-70
2022/01/12 20:06:11;;;;;;;8.45;6.20;;;;;;;15.40;50.00;103486.53;20977896;28;20044;-69
2022/01/12 20:16:18;;;;;;;8.90;5.13;;;;;;;15.29;50.66;103469.94;20978205;28;20064;-69
2022/01/12 20:26:21;;;;;;;8.23;5.65;;;;;;;15.20;50.51;103469.34;20979646;28;20091;-69
2022/01/12 20:36:24;;;;;;;9.48;5.30;;;;;;;15.70;51.04;103572.25;20992510;28;20052;-69
2022/01/12 20:46:25;;;;;;;13.57;8.57;;;;;;;15.06;51.08;103474.34;20992613;28;20045;-69
2022/01/12 20:56:28;;;;;;;11.65;7.28;;;;;;;15.62;51.14;103574.34;20993469;28;20094;-68
2022/01/12 21:06:30;;;;;;;12.52;8.18;;;;;;;14.77;51.46;103446.72;20992938;28;20052;-68
2022/01/12 21:16:32;;;;;;;13.05;8.45;;;;;;;14.76;51.48;103469.13;20974767;28;20056;-69
2022/01/12 21:26:34;;;;;;;15.23;10.25;;;;;;;15.40;51.83;103580.47;20991030;28;20067;-69
2022/01/12 21:36:36;;;;;;;15.55;10.38;;;;;;;15.34;51.76;103589.66;20974133;28;20049;-69
2022/01/12 21:46:38;;;;;;;11.90;8.43;;;;;;;14.47;51.72;103454.84;21000497;28;20049;-69
2022/01/12 21:56:42;;;;;;;12.63;8.40;;;;;;;14.47;51.40;103474.50;21007212;28;20041;-71
2022/01/12 22:06:45;;;;;;;15.45;9.57;;;;;;;15.12;51.77;103597.56;20988611;28;20448;-68
2022/01/12 22:16:47;;;;;;;13.52;8.93;;;;;;;14.48;51.67;103510.22;20986566;28;20511;-69
2022/01/12 22:26:48;;;;;;;14.18;9.70;;;;;;;14.27;51.73;103480.50;21003545;28;20061;-68
2022/01/12 22:36:50;;;;;;;16.77;10.07;;;;;;;14.78;51.57;103596.84;21003987;28;20091;-69
2022/01/12 22:46:52;;;;;;;12.75;7.88;;;;;;;14.77;51.88;103610.31;21004192;28;20061;-68
2022/01/12 22:57:05;;;;;;;13.23;8.23;;;;;;;14.81;51.88;103606.59;21001885;28;20460;-68
2022/01/12 23:07:10;;;;;;;14.38;9.32;;;;;;;13.90;52.21;103452.19;21001711;28;20432;-68
2022/01/12 23:17:11;;;;;;;12.43;7.95;;;;;;;14.35;52.37;103536.50;21000877;28;20662;-68
2022/01/12 23:27:15;;;;;;;18.55;9.82;;;;;;;14.42;52.19;103585.47;21000062;28;20246;-68
2022/01/12 23:58:02;;;;;;;14.32;8.70;;;;;;;13.72;52.51;103481.28;20979773;28;20476;-69
